Terminal Aerodrome Forecast
Issued by NWS Louisville, KY

Home | Current Version | Previous Version | Text Only | Print | Product List | Glossary On
Versions: 1 2 3 4 5 6 7 8 9 10 11 12 13 14 15 16 17 18
861
FTUS43 KLMK 091727
TAFLEX
TAF
KLEX 091727Z 0918/1018 26010KT 6SM BR VCSH FEW017 BKN025
      TEMPO 0918/0921 4SM -SHSN BKN017
     FM092100 27010G15KT 6SM -SHSN OVC025
      TEMPO 1000/1004 3SM -SHSN BR
     FM101300 27011KT P6SM BKN025=

USA.gov is the U.S. government's official web portal to all federal, state and local government web resources and services.